»·PEaware :: ENY3256 KPHX-KPSP

ENY3256 :: KPHX-KPSP

FLIGHT INFORMATION

Flight Status: Arrived
Operator: Unknown
More flights by this operator :: More flights under this callsign
Pilot: Alex K. (14822)
Aircraft: EMBRAER EMB-170/175
(E170)
More flights by this aircraft type
Origin: KPHX Phoenix Sky Harbor Intl
United States
Destination: KPSP Palm Springs Intl
United States
More flights between these airports :: More routes between these airports
Route: +IZZZO6 HRRBR CURIV J212 DECAS SBONO1
File this flight plan on PilotEdge
Remarks: PBN / B2B3B4B5C1D1S2 NAV / RNVD1E2A1 DAT / V DOF / 180419 REG / N170SB EET / KZLA0023 RMK / NRP SIMBRIEF
Altitude:
(Current/Filed)
30,000ft
Speed:
(Current/Filed)
443kts
Departed: 19-Apr-18 09:54 AM
Arrived: 19-Apr-18 10:44 AM
Distance/Time
Traveled:
226nm/0:50
Distance/Time
To Go:
Arrived

Flight Plot

Page will automatically refresh every two minutes.

Flight plan parsing failed; only flown route is shown


Map Options




Map Legend


Flown Route
Filed Route
Departure Airport
Arrival Airport
Navaid (VOR, NDB)
Fix

Horizontal Profiles

Position Reports

Time Latitude Longitude Heading Altitude Ground
Speed
19-Apr-18 08:55 33.436512 -111.993201 180 1128ft 0kts
19-Apr-18 08:56 33.436512 -111.993201 180 1128ft 0kts
19-Apr-18 08:57 33.436512 -111.993201 180 1128ft 0kts
19-Apr-18 08:58 33.436512 -111.993201 180 1128ft 0kts
19-Apr-18 08:59 33.436512 -111.993201 180 1128ft 0kts
19-Apr-18 09:00 33.436512 -111.993201 180 1128ft 0kts
19-Apr-18 09:01 33.436512 -111.993201 180 1128ft 0kts
19-Apr-18 09:02 33.436512 -111.993201 180 1128ft 0kts
19-Apr-18 09:03 33.436512 -111.993201 180 1128ft 0kts
19-Apr-18 09:04 33.436512 -111.993201 180 1128ft 0kts
19-Apr-18 09:05 33.436512 -111.993201 180 1128ft 0kts
19-Apr-18 09:06 33.436512 -111.993201 180 1128ft 0kts
19-Apr-18 09:14 33.436512 -111.993201 180 1128ft 0kts
19-Apr-18 09:15 33.436512 -111.993201 180 1128ft 0kts
19-Apr-18 09:16 33.436512 -111.993201 180 1128ft 0kts
19-Apr-18 09:17 33.436512 -111.993201 180 1128ft 0kts
19-Apr-18 09:18 33.436512 -111.993201 180 1128ft 0kts
19-Apr-18 09:19 33.436512 -111.993201 180 1128ft 0kts
19-Apr-18 09:20 33.436512 -111.993201 180 1128ft 0kts
19-Apr-18 09:21 33.436512 -111.993201 180 1128ft 0kts
19-Apr-18 09:22 33.436512 -111.993201 180 1128ft 0kts
19-Apr-18 09:23 33.436512 -111.993201 180 1128ft 0kts
19-Apr-18 09:24 33.436512 -111.993201 180 1128ft 0kts
19-Apr-18 09:25 33.436512 -111.993201 180 1128ft 0kts
19-Apr-18 09:26 33.436512 -111.993201 180 1128ft 0kts
19-Apr-18 09:27 33.436512 -111.993201 180 1128ft 0kts
19-Apr-18 09:28 33.436512 -111.993201 180 1128ft 0kts
19-Apr-18 09:29 33.436512 -111.993201 180 1128ft 0kts
19-Apr-18 09:30 33.436512 -111.993201 180 1128ft 0kts
19-Apr-18 09:31 33.436512 -111.993201 180 1128ft 0kts
19-Apr-18 09:32 33.436512 -111.993201 180 1128ft 0kts
19-Apr-18 09:33 33.436512 -111.993201 180 1128ft 0kts
19-Apr-18 09:34 33.436512 -111.993201 180 1128ft 0kts
19-Apr-18 09:35 33.436512 -111.993201 180 1128ft 0kts
19-Apr-18 09:36 33.436512 -111.993201 180 1128ft 0kts
19-Apr-18 09:37 33.436512 -111.993201 180 1128ft 0kts
19-Apr-18 09:38 33.436512 -111.993201 180 1128ft 0kts
19-Apr-18 09:39 33.436783 -111.993198 180 1128ft 2kts
19-Apr-18 09:40 33.437010 -111.993196 180 1129ft 0kts
19-Apr-18 09:41 33.437010 -111.993196 180 1129ft 0kts
19-Apr-18 09:42 33.436973 -111.993197 181 1129ft 0kts
19-Apr-18 09:43 33.436973 -111.993197 181 1129ft 0kts
19-Apr-18 09:44 33.436973 -111.993197 181 1129ft 0kts
19-Apr-18 09:45 33.436973 -111.993197 181 1129ft 0kts
19-Apr-18 09:46 33.436973 -111.993197 181 1129ft 0kts
19-Apr-18 09:47 33.436973 -111.993197 181 1129ft 0kts
19-Apr-18 09:48 33.436973 -111.993197 181 1129ft 0kts
19-Apr-18 09:49 33.436971 -111.993197 181 1129ft 0kts
19-Apr-18 09:50 33.437528 -111.992292 2 1130ft 9kts
19-Apr-18 09:51 33.439852 -111.992270 2 1134ft 0kts
19-Apr-18 09:52 33.440139 -111.992270 0 1134ft 5kts
19-Apr-18 09:53 33.440837 -112.006952 270 1128ft 124kts
19-Apr-18 09:54 33.440692 -112.056235 272 2467ft 162kts
19-Apr-18 09:55 33.442181 -112.118550 273 4288ft 201kts
19-Apr-18 09:56 33.443891 -112.192923 272 6712ft 250kts
19-Apr-18 09:57 33.445535 -112.283610 272 9069ft 289kts
19-Apr-18 09:58 33.446980 -112.377238 275 12686ft 289kts
19-Apr-18 09:59 33.448570 -112.476745 269 16140ft 306kts
19-Apr-18 10:00 33.449848 -112.577824 272 20029ft 298kts
19-Apr-18 10:01 33.451336 -112.680247 277 22622ft 315kts
19-Apr-18 10:02 33.452828 -112.785266 279 25034ft 321kts
19-Apr-18 10:03 33.468933 -112.890455 286 27021ft 328kts
19-Apr-18 10:04 33.489751 -112.998512 285 28724ft 338kts
19-Apr-18 10:05 33.510511 -113.109421 285 29919ft 341kts
19-Apr-18 10:06 33.531599 -113.223615 283 29940ft 366kts
19-Apr-18 10:07 33.553606 -113.343502 285 29933ft 368kts
19-Apr-18 10:08 33.575468 -113.463028 285 29930ft 368kts
19-Apr-18 10:09 33.597493 -113.582498 285 29928ft 368kts
19-Apr-18 10:10 33.619697 -113.701768 284 29944ft 368kts
19-Apr-18 10:11 33.641642 -113.821298 284 29942ft 367kts
19-Apr-18 10:12 33.663273 -113.938646 284 29940ft 367kts
19-Apr-18 10:13 33.684871 -114.057232 284 29937ft 367kts
19-Apr-18 10:14 33.706295 -114.174726 284 29934ft 367kts
19-Apr-18 10:15 33.727811 -114.293309 284 29922ft 367kts
19-Apr-18 10:16 33.749196 -114.411847 284 29905ft 366kts
19-Apr-18 10:17 33.769986 -114.527622 283 29871ft 378kts
19-Apr-18 10:18 33.780361 -114.648808 277 28759ft 345kts
19-Apr-18 10:19 33.785545 -114.761068 277 25942ft 349kts
19-Apr-18 10:20 33.791863 -114.877785 278 24616ft 356kts
19-Apr-18 10:21 33.797780 -114.984827 278 24324ft 347kts
19-Apr-18 10:22 33.803635 -115.093174 278 22909ft 309kts
19-Apr-18 10:23 33.809240 -115.194077 278 21473ft 304kts
19-Apr-18 10:24 33.814806 -115.295355 278 20043ft 304kts
19-Apr-18 10:25 33.819198 -115.379178 278 18780ft 302kts
19-Apr-18 10:26 33.828883 -115.476224 289 17312ft 287kts
19-Apr-18 10:27 33.858456 -115.567028 294 15895ft 295kts
19-Apr-18 10:28 33.888415 -115.658219 293 14514ft 294kts
19-Apr-18 10:29 33.912896 -115.749117 279 13271ft 299kts
19-Apr-18 10:30 33.908513 -115.849828 269 12014ft 303kts
19-Apr-18 10:31 33.897271 -115.948036 252 10739ft 283kts
19-Apr-18 10:32 33.858828 -116.027842 241 9458ft 278kts
19-Apr-18 10:33 33.819258 -116.106425 238 8282ft 263kts
19-Apr-18 10:34 33.758799 -116.154856 207 6538ft 255kts
19-Apr-18 10:35 33.702623 -116.195504 246 5413ft 227kts
19-Apr-18 10:36 33.686527 -116.267423 263 4807ft 224kts
19-Apr-18 10:37 33.677921 -116.336421 267 4265ft 201kts
19-Apr-18 10:38 33.703856 -116.388358 318 3421ft 176kts
19-Apr-18 10:39 33.734844 -116.419424 321 2564ft 127kts
19-Apr-18 10:40 33.760866 -116.443826 322 1925ft 125kts
19-Apr-18 10:41 33.788234 -116.470154 320 1249ft 126kts
19-Apr-18 10:42 33.815703 -116.495305 323 656ft 123kts
19-Apr-18 10:43 33.833266 -116.511129 280 483ft 18kts
19-Apr-18 10:44 33.830523 -116.510519 142 483ft 12kts
19-Apr-18 10:45 33.827078 -116.507383 143 483ft 18kts
19-Apr-18 10:46 33.824018 -116.505548 142 483ft 11kts
19-Apr-18 10:47 33.822557 -116.506222 323 483ft 0kts
19-Apr-18 10:48 33.822557 -116.506222 323 483ft 0kts
19-Apr-18 10:49 33.822557 -116.506222 323 483ft 0kts
19-Apr-18 10:50 33.822557 -116.506222 323 483ft 0kts
19-Apr-18 10:51 33.822557 -116.506222 323 483ft 0kts
19-Apr-18 10:52 33.822557 -116.506222 323 483ft 0kts
19-Apr-18 10:53 33.822557 -116.506222 323 483ft 0kts
19-Apr-18 10:54 33.822557 -116.506222 323 483ft 0kts
19-Apr-18 10:55 33.822557 -116.506222 323 483ft 0kts
19-Apr-18 10:56 33.822557 -116.506222 323 483ft 0kts
19-Apr-18 10:57 33.822557 -116.506222 323 483ft 0kts
19-Apr-18 10:58 33.822557 -116.506222 323 483ft 0kts

Navigation Log

Ident Type
Flight plan parsing failed, navigation log unavailable